sensor_id;sensor_type;location;lat;lon;timestamp;temperature;humidity
13346;DHT22;6742;48.036;15.780;2024-03-06T00:01:57;8.00;99.90
13346;DHT22;6742;48.036;15.780;2024-03-06T00:04:24;8.10;99.90
13346;DHT22;6742;48.036;15.780;2024-03-06T00:06:50;8.10;99.90
13346;DHT22;6742;48.036;15.780;2024-03-06T00:09:19;8.10;99.90
13346;DHT22;6742;48.036;15.780;2024-03-06T00:11:46;8.10;99.90
13346;DHT22;6742;48.036;15.780;2024-03-06T00:14:13;8.10;99.90
13346;DHT22;6742;48.036;15.780;2024-03-06T00:16:40;8.10;99.90
13346;DHT22;6742;48.036;15.780;2024-03-06T00:19:08;8.00;99.90
13346;DHT22;6742;48.036;15.780;2024-03-06T00:21:35;8.00;99.90
13346;DHT22;6742;48.036;15.780;2024-03-06T00:24:03;8.00;99.90
13346;DHT22;6742;48.036;15.780;2024-03-06T00:26:30;8.00;99.90
13346;DHT22;6742;48.036;15.780;2024-03-06T00:28:57;8.00;99.90
13346;DHT22;6742;48.036;15.780;2024-03-06T00:31:24;8.10;99.90
13346;DHT22;6742;48.036;15.780;2024-03-06T00:33:51;8.10;99.90
13346;DHT22;6742;48.036;15.780;2024-03-06T00:36:19;8.10;99.90
13346;DHT22;6742;48.036;15.780;2024-03-06T00:38:48;8.10;99.90
13346;DHT22;6742;48.036;15.780;2024-03-06T00:41:15;8.00;99.90
13346;DHT22;6742;48.036;15.780;2024-03-06T00:43:42;8.00;99.90
13346;DHT22;6742;48.036;15.780;2024-03-06T00:46:09;8.00;99.90
13346;DHT22;6742;48.036;15.780;2024-03-06T00:48:36;8.00;99.90
13346;DHT22;6742;48.036;15.780;2024-03-06T00:51:04;8.00;99.90
13346;DHT22;6742;48.036;15.780;2024-03-06T00:53:34;8.00;99.90
13346;DHT22;6742;48.036;15.780;2024-03-06T00:56:01;8.00;99.90
13346;DHT22;6742;48.036;15.780;2024-03-06T00:58:28;8.00;99.90
13346;DHT22;6742;48.036;15.780;2024-03-06T01:00:55;8.00;99.90
13346;DHT22;6742;48.036;15.780;2024-03-06T01:03:23;7.90;99.90
13346;DHT22;6742;48.036;15.780;2024-03-06T01:05:51;7.90;99.90
13346;DHT22;6742;48.036;15.780;2024-03-06T01:08:19;7.90;99.90
13346;DHT22;6742;48.036;15.780;2024-03-06T01:10:47;7.90;99.90
13346;DHT22;6742;48.036;15.780;2024-03-06T01:13:14;7.90;99.90
13346;DHT22;6742;48.036;15.780;2024-03-06T01:15:44;7.90;99.90
13346;DHT22;6742;48.036;15.780;2024-03-06T01:18:11;7.90;99.90
13346;DHT22;6742;48.036;15.780;2024-03-06T01:20:38;7.90;99.90
13346;DHT22;6742;48.036;15.780;2024-03-06T01:23:05;7.90;99.90
13346;DHT22;6742;48.036;15.780;2024-03-06T01:25:32;7.80;99.90
13346;DHT22;6742;48.036;15.780;2024-03-06T01:28:02;7.80;99.90
13346;DHT22;6742;48.036;15.780;2024-03-06T01:30:29;7.80;99.90
13346;DHT22;6742;48.036;15.780;2024-03-06T01:32:56;7.80;99.90
13346;DHT22;6742;48.036;15.780;2024-03-06T01:35:24;7.80;99.90
13346;DHT22;6742;48.036;15.780;2024-03-06T01:37:51;7.80;99.90
13346;DHT22;6742;48.036;15.780;2024-03-06T01:40:18;7.70;99.90
13346;DHT22;6742;48.036;15.780;2024-03-06T01:42:46;7.60;99.90
13346;DHT22;6742;48.036;15.780;2024-03-06T01:45:15;7.60;99.90
13346;DHT22;6742;48.036;15.780;2024-03-06T01:47:42;7.50;99.90
13346;DHT22;6742;48.036;15.780;2024-03-06T01:50:09;7.40;99.90
13346;DHT22;6742;48.036;15.780;2024-03-06T01:52:38;7.30;99.90
13346;DHT22;6742;48.036;15.780;2024-03-06T01:55:07;7.30;99.90
13346;DHT22;6742;48.036;15.780;2024-03-06T01:57:36;7.20;99.90
13346;DHT22;6742;48.036;15.780;2024-03-06T02:00:06;7.00;99.90
13346;DHT22;6742;48.036;15.780;2024-03-06T02:02:35;7.00;99.90
13346;DHT22;6742;48.036;15.780;2024-03-06T02:05:02;6.90;99.90
13346;DHT22;6742;48.036;15.780;2024-03-06T02:07:32;6.90;99.90
13346;DHT22;6742;48.036;15.780;2024-03-06T02:10:00;6.90;99.90
13346;DHT22;6742;48.036;15.780;2024-03-06T02:12:27;6.90;99.90
13346;DHT22;6742;48.036;15.780;2024-03-06T02:14:54;6.90;99.90
13346;DHT22;6742;48.036;15.780;2024-03-06T02:17:20;6.90;99.90
13346;DHT22;6742;48.036;15.780;2024-03-06T02:19:49;6.80;99.90
13346;DHT22;6742;48.036;15.780;2024-03-06T02:22:17;6.70;99.90
13346;DHT22;6742;48.036;15.780;2024-03-06T02:24:47;6.70;99.90
13346;DHT22;6742;48.036;15.780;2024-03-06T02:27:14;6.60;99.90
13346;DHT22;6742;48.036;15.780;2024-03-06T02:29:42;6.60;99.90
13346;DHT22;6742;48.036;15.780;2024-03-06T02:32:11;6.50;99.90
13346;DHT22;6742;48.036;15.780;2024-03-06T02:34:39;6.50;99.90
13346;DHT22;6742;48.036;15.780;2024-03-06T02:37:06;6.50;99.90
13346;DHT22;6742;48.036;15.780;2024-03-06T02:39:34;6.50;99.90
13346;DHT22;6742;48.036;15.780;2024-03-06T02:42:02;6.50;99.90
13346;DHT22;6742;48.036;15.780;2024-03-06T02:44:29;6.50;99.90
13346;DHT22;6742;48.036;15.780;2024-03-06T02:46:56;6.50;99.90
13346;DHT22;6742;48.036;15.780;2024-03-06T02:49:23;6.50;99.90
13346;DHT22;6742;48.036;15.780;2024-03-06T02:51:50;6.50;99.90
13346;DHT22;6742;48.036;15.780;2024-03-06T02:54:17;6.50;99.90
13346;DHT22;6742;48.036;15.780;2024-03-06T02:56:46;6.50;99.90
13346;DHT22;6742;48.036;15.780;2024-03-06T02:59:13;6.50;99.90
13346;DHT22;6742;48.036;15.780;2024-03-06T03:01:40;6.40;99.90
13346;DHT22;6742;48.036;15.780;2024-03-06T03:04:07;6.40;99.90
13346;DHT22;6742;48.036;15.780;2024-03-06T03:06:34;6.40;99.90
13346;DHT22;6742;48.036;15.780;2024-03-06T03:09:01;6.30;99.90
13346;DHT22;6742;48.036;15.780;2024-03-06T03:11:29;6.30;99.90
13346;DHT22;6742;48.036;15.780;2024-03-06T03:13:58;6.30;99.90
13346;DHT22;6742;48.036;15.780;2024-03-06T03:16:25;6.20;99.90
13346;DHT22;6742;48.036;15.780;2024-03-06T03:18:52;6.20;99.90
13346;DHT22;6742;48.036;15.780;2024-03-06T03:21:19;6.20;99.90
13346;DHT22;6742;48.036;15.780;2024-03-06T03:23:47;6.20;99.90
13346;DHT22;6742;48.036;15.780;2024-03-06T03:26:14;6.20;99.90
13346;DHT22;6742;48.036;15.780;2024-03-06T03:28:41;6.30;99.90
13346;DHT22;6742;48.036;15.780;2024-03-06T03:31:10;6.30;99.90
13346;DHT22;6742;48.036;15.780;2024-03-06T03:33:39;6.30;99.90
13346;DHT22;6742;48.036;15.780;2024-03-06T03:36:07;6.40;99.90
13346;DHT22;6742;48.036;15.780;2024-03-06T03:38:34;6.30;99.90
13346;DHT22;6742;48.036;15.780;2024-03-06T03:41:02;6.30;99.90
13346;DHT22;6742;48.036;15.780;2024-03-06T03:43:30;6.20;99.90
13346;DHT22;6742;48.036;15.780;2024-03-06T03:45:58;6.20;99.90
13346;DHT22;6742;48.036;15.780;2024-03-06T03:48:26;6.10;99.90
13346;DHT22;6742;48.036;15.780;2024-03-06T03:50:53;6.10;99.90
13346;DHT22;6742;48.036;15.780;2024-03-06T03:53:20;6.10;99.90
13346;DHT22;6742;48.036;15.780;2024-03-06T03:55:50;6.10;99.90
13346;DHT22;6742;48.036;15.780;2024-03-06T03:58:17;6.20;99.90
13346;DHT22;6742;48.036;15.780;2024-03-06T04:00:44;6.20;99.90
13346;DHT22;6742;48.036;15.780;2024-03-06T04:03:11;6.20;99.90
13346;DHT22;6742;48.036;15.780;2024-03-06T04:05:39;6.20;99.90
13346;DHT22;6742;48.036;15.780;2024-03-06T04:08:05;6.20;99.90
13346;DHT22;6742;48.036;15.780;2024-03-06T04:10:32;6.20;99.90
13346;DHT22;6742;48.036;15.780;2024-03-06T04:12:59;6.20;99.90
13346;DHT22;6742;48.036;15.780;2024-03-06T04:15:26;6.30;99.90
13346;DHT22;6742;48.036;15.780;2024-03-06T04:17:53;6.40;99.90
13346;DHT22;6742;48.036;15.780;2024-03-06T04:20:20;6.40;99.90
13346;DHT22;6742;48.036;15.780;2024-03-06T04:22:49;6.40;99.90
13346;DHT22;6742;48.036;15.780;2024-03-06T04:25:19;6.40;99.90
13346;DHT22;6742;48.036;15.780;2024-03-06T04:27:46;6.40;99.90
13346;DHT22;6742;48.036;15.780;2024-03-06T04:30:13;6.40;99.90
13346;DHT22;6742;48.036;15.780;2024-03-06T04:32:40;6.50;99.90
13346;DHT22;6742;48.036;15.780;2024-03-06T04:35:08;6.50;99.90
13346;DHT22;6742;48.036;15.780;2024-03-06T04:37:35;6.40;99.90
13346;DHT22;6742;48.036;15.780;2024-03-06T04:40:05;6.40;99.90
13346;DHT22;6742;48.036;15.780;2024-03-06T04:42:33;6.40;99.90
13346;DHT22;6742;48.036;15.780;2024-03-06T04:45:01;6.40;99.90
13346;DHT22;6742;48.036;15.780;2024-03-06T04:47:29;6.40;99.90
13346;DHT22;6742;48.036;15.780;2024-03-06T04:49:57;6.50;99.90
13346;DHT22;6742;48.036;15.780;2024-03-06T04:52:24;6.50;99.90
13346;DHT22;6742;48.036;15.780;2024-03-06T04:54:51;6.60;99.90
13346;DHT22;6742;48.036;15.780;2024-03-06T04:57:19;6.60;99.90
13346;DHT22;6742;48.036;15.780;2024-03-06T04:59:46;6.60;99.90
13346;DHT22;6742;48.036;15.780;2024-03-06T05:02:13;6.60;99.90
13346;DHT22;6742;48.036;15.780;2024-03-06T05:04:40;6.70;99.90
13346;DHT22;6742;48.036;15.780;2024-03-06T05:07:07;6.70;99.90
13346;DHT22;6742;48.036;15.780;2024-03-06T05:09:34;6.70;99.90
13346;DHT22;6742;48.036;15.780;2024-03-06T05:12:02;6.60;99.90
13346;DHT22;6742;48.036;15.780;2024-03-06T05:14:31;6.60;99.90
13346;DHT22;6742;48.036;15.780;2024-03-06T05:16:58;6.60;99.90
13346;DHT22;6742;48.036;15.780;2024-03-06T05:19:25;6.70;99.90
13346;DHT22;6742;48.036;15.780;2024-03-06T05:21:57;6.70;99.90
13346;DHT22;6742;48.036;15.780;2024-03-06T05:24:24;6.70;99.90
13346;DHT22;6742;48.036;15.780;2024-03-06T05:26:51;6.80;99.90
13346;DHT22;6742;48.036;15.780;2024-03-06T05:29:18;6.80;99.90
13346;DHT22;6742;48.036;15.780;2024-03-06T05:31:46;6.80;99.90
13346;DHT22;6742;48.036;15.780;2024-03-06T05:34:13;6.80;99.90
13346;DHT22;6742;48.036;15.780;2024-03-06T05:36:40;6.80;99.90
13346;DHT22;6742;48.036;15.780;2024-03-06T05:39:07;6.80;99.90
13346;DHT22;6742;48.036;15.780;2024-03-06T05:41:38;6.80;99.90
13346;DHT22;6742;48.036;15.780;2024-03-06T05:44:05;6.80;99.90
13346;DHT22;6742;48.036;15.780;2024-03-06T05:46:32;6.80;99.90
13346;DHT22;6742;48.036;15.780;2024-03-06T05:49:00;6.80;99.90
13346;DHT22;6742;48.036;15.780;2024-03-06T05:51:27;6.80;99.90
13346;DHT22;6742;48.036;15.780;2024-03-06T05:53:54;6.80;99.90
13346;DHT22;6742;48.036;15.780;2024-03-06T05:56:21;6.80;99.90
13346;DHT22;6742;48.036;15.780;2024-03-06T05:58:48;6.80;99.90
13346;DHT22;6742;48.036;15.780;2024-03-06T06:01:16;6.80;99.90
13346;DHT22;6742;48.036;15.780;2024-03-06T06:03:45;6.80;99.90
13346;DHT22;6742;48.036;15.780;2024-03-06T06:06:14;6.80;99.90
13346;DHT22;6742;48.036;15.780;2024-03-06T06:08:41;6.80;99.90
13346;DHT22;6742;48.036;15.780;2024-03-06T06:11:09;6.70;99.90
13346;DHT22;6742;48.036;15.780;2024-03-06T06:13:36;6.60;99.90
13346;DHT22;6742;48.036;15.780;2024-03-06T06:16:05;6.60;99.90
13346;DHT22;6742;48.036;15.780;2024-03-06T06:18:32;6.50;99.90
13346;DHT22;6742;48.036;15.780;2024-03-06T06:20:59;6.60;99.90
13346;DHT22;6742;48.036;15.780;2024-03-06T06:23:28;6.60;99.90
13346;DHT22;6742;48.036;15.780;2024-03-06T06:25:55;6.60;99.90
13346;DHT22;6742;48.036;15.780;2024-03-06T06:28:22;6.50;99.90
13346;DHT22;6742;48.036;15.780;2024-03-06T06:30:49;6.60;99.90
13346;DHT22;6742;48.036;15.780;2024-03-06T06:33:18;6.70;99.90
13346;DHT22;6742;48.036;15.780;2024-03-06T06:35:46;6.70;99.90
13346;DHT22;6742;48.036;15.780;2024-03-06T06:38:13;6.70;99.90
13346;DHT22;6742;48.036;15.780;2024-03-06T06:40:41;6.80;99.90
13346;DHT22;6742;48.036;15.780;2024-03-06T06:43:08;6.80;99.90
13346;DHT22;6742;48.036;15.780;2024-03-06T06:45:35;6.90;99.90
13346;DHT22;6742;48.036;15.780;2024-03-06T06:48:03;6.90;99.90
13346;DHT22;6742;48.036;15.780;2024-03-06T06:50:30;6.90;99.90
13346;DHT22;6742;48.036;15.780;2024-03-06T06:52:59;6.90;99.90
13346;DHT22;6742;48.036;15.780;2024-03-06T06:55:26;6.90;99.90
13346;DHT22;6742;48.036;15.780;2024-03-06T06:57:54;7.00;99.90
13346;DHT22;6742;48.036;15.780;2024-03-06T07:00:22;6.90;99.90
13346;DHT22;6742;48.036;15.780;2024-03-06T07:02:50;6.90;99.90
13346;DHT22;6742;48.036;15.780;2024-03-06T07:05:18;6.90;99.90
13346;DHT22;6742;48.036;15.780;2024-03-06T07:07:45;7.00;99.90
13346;DHT22;6742;48.036;15.780;2024-03-06T07:10:12;6.90;99.90
13346;DHT22;6742;48.036;15.780;2024-03-06T07:12:40;6.80;99.90
13346;DHT22;6742;48.036;15.780;2024-03-06T07:15:08;6.70;99.90
13346;DHT22;6742;48.036;15.780;2024-03-06T07:17:36;6.60;99.90
13346;DHT22;6742;48.036;15.780;2024-03-06T07:20:03;6.60;99.90
13346;DHT22;6742;48.036;15.780;2024-03-06T07:22:32;6.60;99.90
13346;DHT22;6742;48.036;15.780;2024-03-06T07:24:59;6.60;99.90
13346;DHT22;6742;48.036;15.780;2024-03-06T07:27:26;6.60;99.90
13346;DHT22;6742;48.036;15.780;2024-03-06T07:29:54;6.60;99.90
13346;DHT22;6742;48.036;15.780;2024-03-06T07:32:22;6.60;99.90
13346;DHT22;6742;48.036;15.780;2024-03-06T07:34:49;6.60;99.90
13346;DHT22;6742;48.036;15.780;2024-03-06T07:37:16;6.70;99.90
13346;DHT22;6742;48.036;15.780;2024-03-06T07:39:44;6.70;99.90
13346;DHT22;6742;48.036;15.780;2024-03-06T07:42:11;6.80;99.90
13346;DHT22;6742;48.036;15.780;2024-03-06T07:44:38;6.70;99.90
13346;DHT22;6742;48.036;15.780;2024-03-06T07:47:05;6.70;99.90
13346;DHT22;6742;48.036;15.780;2024-03-06T07:49:34;6.70;99.90
13346;DHT22;6742;48.036;15.780;2024-03-06T07:52:01;6.60;99.90
13346;DHT22;6742;48.036;15.780;2024-03-06T07:54:29;6.70;99.90
13346;DHT22;6742;48.036;15.780;2024-03-06T07:56:56;6.80;99.90
13346;DHT22;6742;48.036;15.780;2024-03-06T07:59:23;6.80;99.90
13346;DHT22;6742;48.036;15.780;2024-03-06T08:01:50;6.70;99.90
13346;DHT22;6742;48.036;15.780;2024-03-06T08:04:18;6.70;99.90
13346;DHT22;6742;48.036;15.780;2024-03-06T08:06:46;6.80;99.90
13346;DHT22;6742;48.036;15.780;2024-03-06T08:09:13;6.80;99.90
13346;DHT22;6742;48.036;15.780;2024-03-06T08:11:42;6.80;99.90
13346;DHT22;6742;48.036;15.780;2024-03-06T08:14:09;7.00;99.90
13346;DHT22;6742;48.036;15.780;2024-03-06T08:16:36;7.20;99.90
13346;DHT22;6742;48.036;15.780;2024-03-06T08:19:03;7.40;99.90
13346;DHT22;6742;48.036;15.780;2024-03-06T08:21:30;7.50;99.90
13346;DHT22;6742;48.036;15.780;2024-03-06T08:23:58;7.60;99.90
13346;DHT22;6742;48.036;15.780;2024-03-06T08:26:25;7.70;99.90
13346;DHT22;6742;48.036;15.780;2024-03-06T08:28:52;7.90;99.90
13346;DHT22;6742;48.036;15.780;2024-03-06T08:31:19;8.10;99.90
13346;DHT22;6742;48.036;15.780;2024-03-06T08:33:47;8.00;99.90
13346;DHT22;6742;48.036;15.780;2024-03-06T08:36:14;8.20;99.90
13346;DHT22;6742;48.036;15.780;2024-03-06T08:38:41;8.10;99.90
13346;DHT22;6742;48.036;15.780;2024-03-06T08:41:09;8.30;99.90
13346;DHT22;6742;48.036;15.780;2024-03-06T08:43:36;8.40;99.90
13346;DHT22;6742;48.036;15.780;2024-03-06T08:46:03;8.40;99.90
13346;DHT22;6742;48.036;15.780;2024-03-06T08:48:30;8.20;99.90
13346;DHT22;6742;48.036;15.780;2024-03-06T08:50:57;8.10;99.90
13346;DHT22;6742;48.036;15.780;2024-03-06T08:53:24;8.10;99.90
13346;DHT22;6742;48.036;15.780;2024-03-06T08:55:51;8.20;99.90
13346;DHT22;6742;48.036;15.780;2024-03-06T08:58:19;8.20;99.90
13346;DHT22;6742;48.036;15.780;2024-03-06T09:00:46;8.10;99.90
13346;DHT22;6742;48.036;15.780;2024-03-06T09:03:14;8.10;99.90
13346;DHT22;6742;48.036;15.780;2024-03-06T09:05:41;8.10;99.90
13346;DHT22;6742;48.036;15.780;2024-03-06T09:08:08;8.10;99.90
13346;DHT22;6742;48.036;15.780;2024-03-06T09:10:35;8.10;99.90
13346;DHT22;6742;48.036;15.780;2024-03-06T09:13:02;8.20;99.90
13346;DHT22;6742;48.036;15.780;2024-03-06T09:15:30;8.20;99.90
13346;DHT22;6742;48.036;15.780;2024-03-06T09:17:57;7.90;99.90
13346;DHT22;6742;48.036;15.780;2024-03-06T09:20:24;7.90;99.90
13346;DHT22;6742;48.036;15.780;2024-03-06T09:22:51;7.70;99.90
13346;DHT22;6742;48.036;15.780;2024-03-06T09:25:20;7.80;99.90
13346;DHT22;6742;48.036;15.780;2024-03-06T09:27:46;7.80;99.90
13346;DHT22;6742;48.036;15.780;2024-03-06T09:30:14;7.90;99.90
13346;DHT22;6742;48.036;15.780;2024-03-06T09:32:42;8.10;99.90
13346;DHT22;6742;48.036;15.780;2024-03-06T09:35:10;8.10;99.90
13346;DHT22;6742;48.036;15.780;2024-03-06T09:37:37;8.10;99.90
13346;DHT22;6742;48.036;15.780;2024-03-06T09:40:05;8.20;99.90
13346;DHT22;6742;48.036;15.780;2024-03-06T09:42:34;8.20;99.90
13346;DHT22;6742;48.036;15.780;2024-03-06T09:45:01;8.20;99.90
13346;DHT22;6742;48.036;15.780;2024-03-06T09:47:32;8.10;99.90
13346;DHT22;6742;48.036;15.780;2024-03-06T09:50:08;8.20;99.90
13346;DHT22;6742;48.036;15.780;2024-03-06T09:52:36;8.30;99.90
13346;DHT22;6742;48.036;15.780;2024-03-06T09:55:04;8.50;99.90
13346;DHT22;6742;48.036;15.780;2024-03-06T09:57:31;8.70;99.90
13346;DHT22;6742;48.036;15.780;2024-03-06T09:59:58;8.80;99.90
13346;DHT22;6742;48.036;15.780;2024-03-06T10:02:31;8.90;99.90
13346;DHT22;6742;48.036;15.780;2024-03-06T10:05:03;9.00;99.90
13346;DHT22;6742;48.036;15.780;2024-03-06T10:07:31;9.00;99.90
13346;DHT22;6742;48.036;15.780;2024-03-06T10:09:58;9.00;99.90
13346;DHT22;6742;48.036;15.780;2024-03-06T10:12:27;9.00;99.90
13346;DHT22;6742;48.036;15.780;2024-03-06T10:14:56;9.00;99.90
13346;DHT22;6742;48.036;15.780;2024-03-06T10:17:23;8.80;99.90
13346;DHT22;6742;48.036;15.780;2024-03-06T10:19:52;8.70;99.90
13346;DHT22;6742;48.036;15.780;2024-03-06T10:22:20;8.70;99.90
13346;DHT22;6742;48.036;15.780;2024-03-06T10:24:49;8.80;99.90
13346;DHT22;6742;48.036;15.780;2024-03-06T10:27:17;8.70;99.90
13346;DHT22;6742;48.036;15.780;2024-03-06T10:29:44;8.60;99.90
13346;DHT22;6742;48.036;15.780;2024-03-06T10:32:16;8.60;99.90
13346;DHT22;6742;48.036;15.780;2024-03-06T10:34:45;8.60;99.90
13346;DHT22;6742;48.036;15.780;2024-03-06T10:37:12;8.60;99.90
13346;DHT22;6742;48.036;15.780;2024-03-06T10:39:42;8.60;99.90
13346;DHT22;6742;48.036;15.780;2024-03-06T10:42:13;8.70;99.90
13346;DHT22;6742;48.036;15.780;2024-03-06T10:44:45;8.70;99.90
13346;DHT22;6742;48.036;15.780;2024-03-06T10:47:19;8.70;99.90
13346;DHT22;6742;48.036;15.780;2024-03-06T10:49:47;8.70;99.90
13346;DHT22;6742;48.036;15.780;2024-03-06T10:52:14;8.80;99.90
13346;DHT22;6742;48.036;15.780;2024-03-06T10:54:44;8.90;99.90
13346;DHT22;6742;48.036;15.780;2024-03-06T10:57:14;8.90;99.90
13346;DHT22;6742;48.036;15.780;2024-03-06T10:59:42;9.00;99.90
13346;DHT22;6742;48.036;15.780;2024-03-06T11:02:10;9.10;99.90
13346;DHT22;6742;48.036;15.780;2024-03-06T11:04:39;9.10;99.90
13346;DHT22;6742;48.036;15.780;2024-03-06T11:07:07;9.20;99.90
13346;DHT22;6742;48.036;15.780;2024-03-06T11:09:35;9.20;99.90
13346;DHT22;6742;48.036;15.780;2024-03-06T11:12:06;9.30;99.90
13346;DHT22;6742;48.036;15.780;2024-03-06T11:14:36;9.30;99.90
13346;DHT22;6742;48.036;15.780;2024-03-06T11:17:04;9.30;99.90
13346;DHT22;6742;48.036;15.780;2024-03-06T11:19:32;9.40;99.90
13346;DHT22;6742;48.036;15.780;2024-03-06T11:23:02;9.40;99.90
13346;DHT22;6742;48.036;15.780;2024-03-06T11:25:56;9.50;99.90
13346;DHT22;6742;48.036;15.780;2024-03-06T11:28:26;9.50;99.90
13346;DHT22;6742;48.036;15.780;2024-03-06T11:30:56;9.50;99.90
13346;DHT22;6742;48.036;15.780;2024-03-06T11:33:27;9.50;99.90
13346;DHT22;6742;48.036;15.780;2024-03-06T11:36:15;9.50;99.90
13346;DHT22;6742;48.036;15.780;2024-03-06T11:38:42;9.50;99.90
13346;DHT22;6742;48.036;15.780;2024-03-06T11:41:10;9.50;99.90
13346;DHT22;6742;48.036;15.780;2024-03-06T11:43:43;9.50;99.90
13346;DHT22;6742;48.036;15.780;2024-03-06T11:46:11;9.40;99.90
13346;DHT22;6742;48.036;15.780;2024-03-06T11:48:38;9.50;99.90
13346;DHT22;6742;48.036;15.780;2024-03-06T11:51:05;9.40;99.90
13346;DHT22;6742;48.036;15.780;2024-03-06T11:53:33;9.20;99.90
13346;DHT22;6742;48.036;15.780;2024-03-06T11:56:01;9.20;99.90
13346;DHT22;6742;48.036;15.780;2024-03-06T11:58:28;9.30;99.90
13346;DHT22;6742;48.036;15.780;2024-03-06T12:00:56;9.30;99.90
13346;DHT22;6742;48.036;15.780;2024-03-06T12:03:23;9.20;99.90
13346;DHT22;6742;48.036;15.780;2024-03-06T12:05:51;9.20;99.90
13346;DHT22;6742;48.036;15.780;2024-03-06T12:08:18;9.30;99.90
13346;DHT22;6742;48.036;15.780;2024-03-06T12:10:46;9.20;99.90
13346;DHT22;6742;48.036;15.780;2024-03-06T12:13:14;9.20;99.90
13346;DHT22;6742;48.036;15.780;2024-03-06T12:15:42;9.20;99.90
13346;DHT22;6742;48.036;15.780;2024-03-06T12:18:12;9.00;99.90
13346;DHT22;6742;48.036;15.780;2024-03-06T12:20:42;8.90;99.90
13346;DHT22;6742;48.036;15.780;2024-03-06T12:23:19;9.00;99.90
13346;DHT22;6742;48.036;15.780;2024-03-06T12:26:01;9.00;99.90
13346;DHT22;6742;48.036;15.780;2024-03-06T12:28:28;9.00;99.90
13346;DHT22;6742;48.036;15.780;2024-03-06T12:30:55;9.00;99.90
13346;DHT22;6742;48.036;15.780;2024-03-06T12:33:27;9.10;99.90
13346;DHT22;6742;48.036;15.780;2024-03-06T12:36:05;9.20;99.90
13346;DHT22;6742;48.036;15.780;2024-03-06T12:38:35;9.20;99.90
13346;DHT22;6742;48.036;15.780;2024-03-06T12:41:03;9.20;99.90
13346;DHT22;6742;48.036;15.780;2024-03-06T12:43:31;9.10;99.90
13346;DHT22;6742;48.036;15.780;2024-03-06T12:46:00;9.00;99.90
13346;DHT22;6742;48.036;15.780;2024-03-06T12:48:29;9.10;99.90
13346;DHT22;6742;48.036;15.780;2024-03-06T12:50:56;9.20;99.90
13346;DHT22;6742;48.036;15.780;2024-03-06T12:53:30;9.20;99.90
13346;DHT22;6742;48.036;15.780;2024-03-06T12:55:57;9.20;99.90
13346;DHT22;6742;48.036;15.780;2024-03-06T12:58:24;9.10;99.90
13346;DHT22;6742;48.036;15.780;2024-03-06T13:00:51;9.10;99.90
13346;DHT22;6742;48.036;15.780;2024-03-06T13:03:20;9.00;99.90
13346;DHT22;6742;48.036;15.780;2024-03-06T13:05:51;9.00;99.90
13346;DHT22;6742;48.036;15.780;2024-03-06T13:08:18;8.80;99.90
13346;DHT22;6742;48.036;15.780;2024-03-06T13:10:45;8.80;99.90
13346;DHT22;6742;48.036;15.780;2024-03-06T13:13:12;8.80;99.90
13346;DHT22;6742;48.036;15.780;2024-03-06T13:15:39;8.70;99.90
13346;DHT22;6742;48.036;15.780;2024-03-06T13:18:06;8.60;99.90
13346;DHT22;6742;48.036;15.780;2024-03-06T13:20:33;8.70;99.90
13346;DHT22;6742;48.036;15.780;2024-03-06T13:23:02;8.80;99.90
13346;DHT22;6742;48.036;15.780;2024-03-06T13:25:29;8.90;99.90
13346;DHT22;6742;48.036;15.780;2024-03-06T13:27:57;8.90;99.90
13346;DHT22;6742;48.036;15.780;2024-03-06T13:30:24;8.80;99.90
13346;DHT22;6742;48.036;15.780;2024-03-06T13:32:51;8.80;99.90
13346;DHT22;6742;48.036;15.780;2024-03-06T13:35:19;8.70;99.90
13346;DHT22;6742;48.036;15.780;2024-03-06T13:37:49;8.70;99.90
13346;DHT22;6742;48.036;15.780;2024-03-06T13:40:18;8.80;99.90
13346;DHT22;6742;48.036;15.780;2024-03-06T13:42:45;8.80;99.90
13346;DHT22;6742;48.036;15.780;2024-03-06T13:45:12;8.80;99.90
13346;DHT22;6742;48.036;15.780;2024-03-06T13:47:40;8.80;99.90
13346;DHT22;6742;48.036;15.780;2024-03-06T13:50:08;8.80;99.90
13346;DHT22;6742;48.036;15.780;2024-03-06T13:52:35;8.80;99.90
13346;DHT22;6742;48.036;15.780;2024-03-06T13:55:03;8.90;99.90
13346;DHT22;6742;48.036;15.780;2024-03-06T13:57:32;8.80;99.90
13346;DHT22;6742;48.036;15.780;2024-03-06T14:00:00;8.80;99.90
13346;DHT22;6742;48.036;15.780;2024-03-06T14:02:28;8.80;99.90
13346;DHT22;6742;48.036;15.780;2024-03-06T14:04:55;8.60;99.90
13346;DHT22;6742;48.036;15.780;2024-03-06T14:07:22;8.60;99.90
13346;DHT22;6742;48.036;15.780;2024-03-06T14:09:49;8.50;99.90
13346;DHT22;6742;48.036;15.780;2024-03-06T14:12:16;8.60;99.90
13346;DHT22;6742;48.036;15.780;2024-03-06T14:14:45;8.60;99.90
13346;DHT22;6742;48.036;15.780;2024-03-06T14:17:12;8.70;99.90
13346;DHT22;6742;48.036;15.780;2024-03-06T14:19:39;8.50;99.90
13346;DHT22;6742;48.036;15.780;2024-03-06T14:22:07;8.50;99.90
13346;DHT22;6742;48.036;15.780;2024-03-06T14:24:34;8.50;99.90
13346;DHT22;6742;48.036;15.780;2024-03-06T14:27:01;8.50;99.90
13346;DHT22;6742;48.036;15.780;2024-03-06T14:29:28;8.60;99.90
13346;DHT22;6742;48.036;15.780;2024-03-06T14:31:56;8.60;99.90
13346;DHT22;6742;48.036;15.780;2024-03-06T14:34:24;8.60;99.90
13346;DHT22;6742;48.036;15.780;2024-03-06T14:36:51;8.60;99.90
13346;DHT22;6742;48.036;15.780;2024-03-06T14:39:18;8.70;99.90
13346;DHT22;6742;48.036;15.780;2024-03-06T14:41:47;8.60;99.90
13346;DHT22;6742;48.036;15.780;2024-03-06T14:44:14;8.70;99.90
13346;DHT22;6742;48.036;15.780;2024-03-06T14:46:41;8.60;99.90
13346;DHT22;6742;48.036;15.780;2024-03-06T14:49:10;8.50;99.90
13346;DHT22;6742;48.036;15.780;2024-03-06T14:51:37;8.60;99.90
13346;DHT22;6742;48.036;15.780;2024-03-06T14:54:04;8.60;99.90
13346;DHT22;6742;48.036;15.780;2024-03-06T14:56:31;8.60;99.90
13346;DHT22;6742;48.036;15.780;2024-03-06T14:58:58;8.70;99.90
13346;DHT22;6742;48.036;15.780;2024-03-06T15:01:25;8.70;99.90
13346;DHT22;6742;48.036;15.780;2024-03-06T15:03:53;8.60;99.90
13346;DHT22;6742;48.036;15.780;2024-03-06T15:06:22;8.70;99.90
13346;DHT22;6742;48.036;15.780;2024-03-06T15:08:49;8.70;99.90
13346;DHT22;6742;48.036;15.780;2024-03-06T15:11:16;8.70;99.90
13346;DHT22;6742;48.036;15.780;2024-03-06T15:13:43;8.60;99.90
13346;DHT22;6742;48.036;15.780;2024-03-06T15:16:11;8.60;99.90
13346;DHT22;6742;48.036;15.780;2024-03-06T15:18:38;8.60;99.90
13346;DHT22;6742;48.036;15.780;2024-03-06T15:21:06;8.50;99.90
13346;DHT22;6742;48.036;15.780;2024-03-06T15:23:35;8.60;99.90
13346;DHT22;6742;48.036;15.780;2024-03-06T15:26:02;8.60;99.90
13346;DHT22;6742;48.036;15.780;2024-03-06T15:28:29;8.70;99.90
13346;DHT22;6742;48.036;15.780;2024-03-06T15:30:56;8.60;99.90
13346;DHT22;6742;48.036;15.780;2024-03-06T15:33:23;8.60;99.90
13346;DHT22;6742;48.036;15.780;2024-03-06T15:35:51;8.60;99.90
13346;DHT22;6742;48.036;15.780;2024-03-06T15:38:18;8.40;99.90
13346;DHT22;6742;48.036;15.780;2024-03-06T15:40:47;8.40;99.90
13346;DHT22;6742;48.036;15.780;2024-03-06T15:43:16;8.40;99.90
13346;DHT22;6742;48.036;15.780;2024-03-06T15:45:43;8.40;99.90
13346;DHT22;6742;48.036;15.780;2024-03-06T15:48:10;8.40;99.90
13346;DHT22;6742;48.036;15.780;2024-03-06T15:50:39;8.40;99.90